Grahn, KY (41142)

8:09 PM EST on February 10, 2016 (GMT -0500)
Green | | Change Station
CLOSE
Current Station
Personal Weather Station
Location: Olive Hill, KY
Elevation: 883 ft
Nearby Weather Stations
Active Advisory: Special Statement

Elev 883 ft 38.19 °N, 83.08 °W | Updated 6 minutes ago

Overcast
Overcast
19.0 °F
Feels Like 19 °F
N
0.0
Wind Variable Wind from North
Gusts 0.0 mph

Today
High -- | Low -- °F
--% Chance of Precip.
Yesterday
High -- | Low -- °F
Precip. -- in
Pressure 30.13 in
Visibility 10.0 miles
Clouds Few 2900 ft
Overcast 4500 ft
Windchill 19 °F
Dew Point -9 °F
Humidity 28%
Rainfall Not available.
Snow Depth Not available.
7:28 AM 6:04 PM
Waxing Crescent, 8% visible
METAR KHTS 110051Z 25009G17KT 10SM -SN FEW029 OVC045 M08/M13 A3009 RMK AO2 UPB25E48SNB19E25B32E42B48 SLP202 P0000 T10781133
Pressure 30.13 in
Visibility 10.0 miles
Clouds Few 2900 ft
Overcast 4500 ft
Windchill 19 °F
Dew Point -9 °F
Humidity 28%
Rainfall Not available.
Snow Depth Not available.
7:28 AM 6:04 PM
Waxing Crescent, 8% visible
METAR KHTS 110051Z 25009G17KT 10SM -SN FEW029 OVC045 M08/M13 A3009 RMK AO2 UPB25E48SNB19E25B32E42B48 SLP202 P0000 T10781133

10-Day Weather Forecast

Almanac

Astronomy

Feb. 10, 2016 Rise Set
Actual Time
Civil Twilight
Nautical Twilight
Astronomical Twilight
Moon
Length of Visible Light
Length of Day
Tomorrow will be .
, % of the Moon is Illuminated

Today's Extremes

State Highs State Lows

Community

WunderPhotos

Upload Photos

1,891,956 photos uploaded!

WunderBlog® & News

Nearby

Air Quality

  Air Quality AQ Index Pollutant
Not available.

Snow Depth

Station Depth Elevation

Earthquake Activity

City Distance Mag. Time & Date
Minimum magnitude displayed is 2.5.

Coastal Water Temperatures

Place Temperature

Stations

Nearby Weather Stations

Station Location Temp. Windchill Dew Point Humidity Wind Precip. Elev Updated Type
                   

Watches & Warnings

Special Statement
Issued: 7:22 PM EST Feb. 10, 2016 – National Weather Service

... Scattered snow showers continue tonight...

Scattered snow showers will continue tonight across parts of southeastern
Ohio... northeastern Kentucky and southern and central West
Virginia. These snow showers are leading to slick Road conditions
and areas of reduced visibility.

Accumulations of a half inch to an inch is possible is some
locations... before the snow showers start to diminish later
tonight.


Kistner


722 PM EST Wed Feb 10 2016

... Scattered snow showers continue tonight...

Scattered snow showers will continue tonight across parts of southeastern
Ohio... northeastern Kentucky and southern and central West
Virginia. These snow showers are leading to slick Road conditions
and areas of reduced visibility.

Accumulations of a half inch to an inch is possible is some
locations... before the snow showers start to diminish later
tonight.


Kistner